Time;durP1;ratioP1;P1;durP2;ratioP2;P2;SDS_P1;SDS_P2;PMS_P1;PMS_P2;Temp;Humidity;BMP_temperature;BMP_pressure;BME280_temperature;BME280_humidity;BME280_pressure;Samples;Min_cycle;Max_cycle;Signal;HPM_P1;HPM_P2
2023/08/08 00:01:25;;;;;;;;;;;;;;;20.52;63.28;99703.75;5083985;28;19920;-71
2023/08/08 00:03:51;;;;;;;;;;;;;;;20.55;64.05;99702.53;5081028;28;19932;-71
2023/08/08 00:06:16;;;;;;;;;;;;;;;20.59;63.33;99704.59;5083177;28;19921;-72
2023/08/08 00:08:41;;;;;;;;;;;;;;;20.62;63.30;99698.81;5066128;28;19921;-72
2023/08/08 00:11:06;;;;;;;;;;;;;;;20.62;63.74;99697.97;5080921;28;19934;-72
2023/08/08 00:13:32;;;;;;;;;;;;;;;20.58;64.79;99702.94;5082308;28;20344;-72
2023/08/08 00:15:57;;;;;;;;;;;;;;;20.57;65.79;99706.63;5078909;28;19920;-70
2023/08/08 00:18:22;;;;;;;;;;;;;;;20.43;67.76;99704.97;5081219;28;19921;-71
2023/08/08 00:20:48;;;;;;;;;;;;;;;20.28;69.80;99706.94;5082892;28;19943;-72
2023/08/08 00:23:13;;;;;;;;;;;;;;;19.94;72.82;99703.31;5083775;28;20369;-71
2023/08/08 00:25:38;;;;;;;;;;;;;;;19.79;74.54;99707.97;5081221;28;19921;-71
2023/08/08 00:28:04;;;;;;;;;;;;;;;19.82;74.00;99712.13;5082381;28;20006;-72
2023/08/08 00:30:29;;;;;;;;;;;;;;;19.81;73.60;99715.81;5079116;28;20070;-71
2023/08/08 00:32:55;;;;;;;;;;;;;;;19.86;73.05;99708.84;5078897;28;20411;-71
2023/08/08 00:35:20;;;;;;;;;;;;;;;19.86;72.64;99702.66;5082605;28;20433;-70
2023/08/08 00:37:45;;;;;;;;;;;;;;;19.85;72.84;99701.03;5063348;28;19920;-71
2023/08/08 00:40:11;;;;;;;;;;;;;;;19.70;73.68;99695.78;5081463;28;19920;-71
2023/08/08 00:42:36;;;;;;;;;;;;;;;19.45;75.45;99689.22;5081483;28;19920;-72
2023/08/08 00:45:03;;;;;;;;;;;;;;;19.34;77.35;99695.13;5078893;28;20357;-72
2023/08/08 00:47:30;;;;;;;;;;;;;;;19.22;75.71;99695.66;5081035;28;19975;-72
2023/08/08 00:49:56;;;;;;;;;;;;;;;19.18;75.82;99699.75;5082731;28;19921;-72
2023/08/08 00:52:21;;;;;;;;;;;;;;;19.28;75.92;99690.53;5096732;28;19927;-72
2023/08/08 00:54:46;;;;;;;;;;;;;;;19.31;76.71;99677.63;5063186;28;19967;-73
2023/08/08 00:57:12;;;;;;;;;;;;;;;19.38;75.43;99688.38;5082816;28;19920;-72
2023/08/08 00:59:37;;;;;;;;;;;;;;;19.42;75.09;99679.75;5059691;28;19924;-72
2023/08/08 01:02:03;;;;;;;;;;;;;;;19.51;73.72;99693.81;5077932;28;19978;-72
2023/08/08 01:04:28;;;;;;;;;;;;;;;19.53;73.71;99697.13;5077243;28;19924;-71
2023/08/08 01:06:53;;;;;;;;;;;;;;;19.58;72.76;99694.69;5080786;28;19967;-72
2023/08/08 01:09:27;;;;;;;;;;;;;;;19.55;73.13;99689.75;5082819;28;19928;-72
2023/08/08 01:11:52;;;;;;;;;;;;;;;19.50;71.26;99694.84;5080557;28;19920;-72
2023/08/08 01:14:19;;;;;;;;;;;;;;;19.45;69.41;99694.56;5063166;28;20022;-71
2023/08/08 01:16:45;;;;;;;;;;;;;;;19.33;69.96;99701.50;5082849;28;19931;-72
2023/08/08 01:19:12;;;;;;;;;;;;;;;19.20;71.39;99697.69;5080402;28;19921;-71
2023/08/08 01:21:40;;;;;;;;;;;;;;;19.08;74.60;99693.09;5080306;28;20335;-71
2023/08/08 01:24:34;;;;;;;;;;;;;;;19.02;75.66;99688.53;5064117;28;19927;-71
2023/08/08 01:27:00;;;;;;;;;;;;;;;19.19;75.87;99706.75;5075763;28;19924;-71
2023/08/08 01:29:26;;;;;;;;;;;;;;;19.21;77.49;99698.53;5080446;28;19924;-70
2023/08/08 01:31:52;;;;;;;;;;;;;;;19.30;76.51;99693.88;5080949;28;19927;-70
2023/08/08 01:34:17;;;;;;;;;;;;;;;19.37;76.13;99700.09;5081125;28;20252;-69
2023/08/08 01:36:53;;;;;;;;;;;;;;;19.40;76.60;99707.72;5082358;28;20015;-71
2023/08/08 01:39:22;;;;;;;;;;;;;;;19.34;76.96;99708.50;5080383;28;19920;-71
2023/08/08 01:41:48;;;;;;;;;;;;;;;19.28;77.17;99715.47;5080667;28;20404;-71
2023/08/08 01:44:13;;;;;;;;;;;;;;;19.21;77.31;99710.06;5079288;28;19920;-72
2023/08/08 01:46:39;;;;;;;;;;;;;;;19.19;77.95;99716.63;5060957;28;19924;-72
2023/08/08 01:49:05;;;;;;;;;;;;;;;19.01;80.36;99709.09;5062062;28;20442;-72
2023/08/08 01:51:30;;;;;;;;;;;;;;;19.07;79.98;99707.47;5077942;28;19921;-72
2023/08/08 01:53:56;;;;;;;;;;;;;;;19.02;80.50;99709.91;5080963;28;19956;-72
2023/08/08 01:56:21;;;;;;;;;;;;;;;18.78;81.66;99709.31;5066848;28;19967;-71
2023/08/08 01:58:47;;;;;;;;;;;;;;;18.80;81.30;99704.56;5080132;28;21396;-71
2023/08/08 02:01:12;;;;;;;;;;;;;;;18.79;81.37;99704.78;5083310;28;19982;-71
2023/08/08 02:03:37;;;;;;;;;;;;;;;18.84;81.82;99702.38;5085058;28;19960;-72
2023/08/08 02:06:03;;;;;;;;;;;;;;;18.90;81.23;99690.91;5083862;28;19924;-72
2023/08/08 02:08:28;;;;;;;;;;;;;;;18.90;82.13;99696.25;5101014;28;20027;-72
2023/08/08 02:10:54;;;;;;;;;;;;;;;18.84;82.92;99686.31;5080779;28;19924;-72
2023/08/08 02:13:19;;;;;;;;;;;;;;;18.80;83.25;99685.03;5085592;28;19966;-71
2023/08/08 02:15:44;;;;;;;;;;;;;;;18.80;83.27;99685.84;5082855;28;20007;-71
2023/08/08 02:18:11;;;;;;;;;;;;;;;18.76;84.11;99689.13;5065829;28;19920;-72
2023/08/08 02:20:36;;;;;;;;;;;;;;;18.77;84.41;99690.78;5085364;28;19927;-72
2023/08/08 02:23:01;;;;;;;;;;;;;;;18.79;83.65;99694.09;5084684;28;20292;-72
2023/08/08 02:25:27;;;;;;;;;;;;;;;18.78;84.00;99692.44;5073155;28;20250;-71
2023/08/08 02:27:52;;;;;;;;;;;;;;;18.77;84.86;99690.78;5048175;28;20331;-71
2023/08/08 02:30:17;;;;;;;;;;;;;;;18.65;86.70;99689.63;5051993;28;20031;-71
2023/08/08 02:32:43;;;;;;;;;;;;;;;18.26;89.98;99688.16;5050720;28;19982;-72
2023/08/08 02:35:09;;;;;;;;;;;;;;;18.05;92.45;99689.97;5052217;28;19921;-72
2023/08/08 02:37:34;;;;;;;;;;;;;;;18.15;93.60;99691.31;5066217;28;19925;-72
2023/08/08 02:40:00;;;;;;;;;;;;;;;18.21;93.20;99684.41;5050580;28;20376;-72
2023/08/08 02:42:25;;;;;;;;;;;;;;;18.15;93.00;99685.16;5053649;28;19928;-72
2023/08/08 02:44:51;;;;;;;;;;;;;;;18.24;92.49;99690.22;5064565;28;19920;-72
2023/08/08 02:47:16;;;;;;;;;;;;;;;18.29;91.98;99693.13;5063765;28;20463;-71
2023/08/08 02:49:42;;;;;;;;;;;;;;;18.31;92.36;99688.44;5067269;28;19927;-71
2023/08/08 02:52:07;;;;;;;;;;;;;;;18.36;91.47;99688.69;5047801;28;19925;-71
2023/08/08 02:54:34;;;;;;;;;;;;;;;18.36;90.83;99687.88;5066700;28;20008;-72
2023/08/08 02:57:00;;;;;;;;;;;;;;;18.37;89.94;99687.69;5065791;28;20015;-72
2023/08/08 02:59:25;;;;;;;;;;;;;;;18.31;90.52;99685.78;5049308;28;19928;-71
2023/08/08 03:01:52;;;;;;;;;;;;;;;18.27;90.37;99679.13;5051309;28;20353;-71
2023/08/08 03:04:17;;;;;;;;;;;;;;;18.28;90.45;99677.28;5063073;28;20015;-72
2023/08/08 03:06:43;;;;;;;;;;;;;;;18.14;92.04;99695.03;5045250;28;20348;-72
2023/08/08 03:09:09;;;;;;;;;;;;;;;17.94;93.01;99688.63;5066419;28;19928;-72
2023/08/08 03:11:37;;;;;;;;;;;;;;;17.87;92.82;99690.38;5047131;28;19920;-72
2023/08/08 03:14:03;;;;;;;;;;;;;;;17.81;92.36;99688.44;5065591;28;19927;-72
2023/08/08 03:16:30;;;;;;;;;;;;;;;17.85;91.58;99695.06;5068727;28;19921;-72
2023/08/08 03:18:55;;;;;;;;;;;;;;;17.88;91.31;99700.03;5063222;28;20431;-71
2023/08/08 03:21:22;;;;;;;;;;;;;;;17.89;91.39;99701.69;5050379;28;19921;-70
2023/08/08 03:23:47;;;;;;;;;;;;;;;17.92;90.98;99706.66;5062359;28;19959;-73
2023/08/08 03:26:13;;;;;;;;;;;;;;;17.97;91.16;99709.59;5066384;28;19921;-73
2023/08/08 03:28:38;;;;;;;;;;;;;;;18.00;91.21;99703.91;5084705;28;19920;-72
2023/08/08 03:31:03;;;;;;;;;;;;;;;17.99;91.21;99704.91;5084811;28;19916;-72
2023/08/08 03:33:30;;;;;;;;;;;;;;;17.95;91.44;99711.63;5078581;28;20052;-72
2023/08/08 03:35:57;;;;;;;;;;;;;;;17.98;91.43;99705.91;5082420;28;20389;-73
2023/08/08 03:38:22;;;;;;;;;;;;;;;17.97;91.39;99714.94;5082182;28;20006;-72
2023/08/08 03:40:47;;;;;;;;;;;;;;;17.94;92.14;99709.97;5083788;28;19977;-73
2023/08/08 03:43:13;;;;;;;;;;;;;;;17.95;91.59;99711.63;5083317;28;19920;-73
2023/08/08 03:45:39;;;;;;;;;;;;;;;17.92;92.41;99701.31;5064726;28;19920;-73
2023/08/08 03:48:04;;;;;;;;;;;;;;;17.95;91.90;99706.31;5083272;28;19920;-72
2023/08/08 03:50:30;;;;;;;;;;;;;;;17.86;92.00;99710.06;5066081;28;19927;-72
2023/08/08 03:52:55;;;;;;;;;;;;;;;17.78;91.89;99704.84;5078848;28;20384;-73
2023/08/08 03:55:20;;;;;;;;;;;;;;;17.71;92.67;99703.94;5084118;28;20007;-73
2023/08/08 03:57:46;;;;;;;;;;;;;;;17.61;93.37;99704.22;5085526;28;19920;-73
2023/08/08 04:00:12;;;;;;;;;;;;;;;17.61;93.21;99714.06;5094659;28;20377;-73
2023/08/08 04:02:39;;;;;;;;;;;;;;;17.64;93.05;99711.00;5082210;28;20318;-73
2023/08/08 04:05:05;;;;;;;;;;;;;;;17.67;92.19;99713.31;5080705;28;19950;-70
2023/08/08 04:07:30;;;;;;;;;;;;;;;17.59;92.09;99717.69;5080532;28;20006;-72
2023/08/08 04:09:56;;;;;;;;;;;;;;;17.55;91.99;99716.38;5084518;28;19924;-72
2023/08/08 04:12:21;;;;;;;;;;;;;;;17.44;92.41;99714.19;5062000;28;19920;-72
2023/08/08 04:14:46;;;;;;;;;;;;;;;17.41;92.44;99719.06;5084375;28;19920;-72
2023/08/08 04:17:12;;;;;;;;;;;;;;;17.34;93.40;99718.97;5081378;28;19920;-72
2023/08/08 04:19:37;;;;;;;;;;;;;;;17.32;93.56;99715.63;5082961;28;19920;-72
2023/08/08 04:22:02;;;;;;;;;;;;;;;17.42;93.14;99724.22;5079391;28;20266;-73
2023/08/08 04:24:27;;;;;;;;;;;;;;;17.44;92.67;99722.19;5080659;28;20463;-73
2023/08/08 04:26:53;;;;;;;;;;;;;;;17.40;92.83;99723.56;5096920;28;19920;-72
2023/08/08 04:29:18;;;;;;;;;;;;;;;17.35;93.63;99720.63;5084531;28;19929;-72
2023/08/08 04:31:43;;;;;;;;;;;;;;;17.41;93.55;99727.91;5082594;28;20135;-72
2023/08/08 04:34:09;;;;;;;;;;;;;;;17.42;95.08;99726.91;5081922;28;19924;-72
2023/08/08 04:36:34;;;;;;;;;;;;;;;17.46;95.05;99728.19;5081173;28;20066;-72
2023/08/08 04:39:00;;;;;;;;;;;;;;;17.45;95.69;99731.84;5081888;28;19920;-72
2023/08/08 04:41:25;;;;;;;;;;;;;;;17.42;96.93;99726.91;5078130;28;19969;-72
2023/08/08 04:43:50;;;;;;;;;;;;;;;17.32;98.09;99726.31;5083487;28;20011;-72
2023/08/08 04:46:15;;;;;;;;;;;;;;;17.33;98.61;99727.97;5080821;28;19946;-72
2023/08/08 04:48:41;;;;;;;;;;;;;;;17.29;99.08;99732.03;5083467;28;19946;-72
2023/08/08 04:51:06;;;;;;;;;;;;;;;17.29;99.14;99737.34;5081278;28;20038;-72
2023/08/08 04:53:32;;;;;;;;;;;;;;;17.33;98.55;99738.63;5082345;28;19959;-72
2023/08/08 04:55:57;;;;;;;;;;;;;;;17.34;98.67;99734.97;5079143;28;20472;-72
2023/08/08 04:58:22;;;;;;;;;;;;;;;17.30;98.68;99733.69;5080042;28;19935;-71
2023/08/08 05:00:48;;;;;;;;;;;;;;;17.33;97.60;99738.63;5077841;28;19935;-71
2023/08/08 05:03:13;;;;;;;;;;;;;;;17.36;97.15;99748.97;5081470;28;19921;-71
2023/08/08 05:05:38;;;;;;;;;;;;;;;17.39;97.08;99756.59;5078146;28;20364;-72
2023/08/08 05:08:04;;;;;;;;;;;;;;;17.43;96.00;99752.56;5082704;28;19924;-72
2023/08/08 05:10:31;;;;;;;;;;;;;;;17.18;96.23;99757.28;5079347;28;20007;-72
2023/08/08 05:12:56;;;;;;;;;;;;;;;17.07;95.92;99754.22;5081852;28;19927;-72
2023/08/08 05:15:21;;;;;;;;;;;;;;;17.02;96.55;99761.94;5080290;28;20372;-72
2023/08/08 05:17:47;;;;;;;;;;;;;;;17.07;95.76;99759.56;5083136;28;19920;-71
2023/08/08 05:20:12;;;;;;;;;;;;;;;17.04;95.97;99751.91;5078522;28;20058;-71
2023/08/08 05:22:37;;;;;;;;;;;;;;;17.11;95.78;99771.50;5084079;28;19928;-72
2023/08/08 05:25:03;;;;;;;;;;;;;;;17.17;96.21;99765.47;5079884;28;20024;-72
2023/08/08 05:27:28;;;;;;;;;;;;;;;17.25;96.36;99776.06;5082685;28;20343;-72
2023/08/08 05:29:53;;;;;;;;;;;;;;;17.31;96.26;99764.69;5082556;28;19920;-72
2023/08/08 05:32:19;;;;;;;;;;;;;;;17.40;96.28;99766.25;5080071;28;20366;-71
2023/08/08 05:34:44;;;;;;;;;;;;;;;17.42;96.14;99766.91;5080568;28;19924;-72
2023/08/08 05:37:09;;;;;;;;;;;;;;;17.47;95.89;99764.53;5080735;28;19921;-72
2023/08/08 05:39:35;;;;;;;;;;;;;;;17.45;96.58;99758.53;5080024;28;19927;-72
2023/08/08 05:42:00;;;;;;;;;;;;;;;17.51;96.42;99765.81;5084287;28;19920;-72
2023/08/08 05:44:25;;;;;;;;;;;;;;;17.60;96.45;99766.59;5079121;28;19920;-72
2023/08/08 05:46:52;;;;;;;;;;;;;;;17.67;95.97;99772.03;5081730;28;19916;-72
2023/08/08 05:49:17;;;;;;;;;;;;;;;17.68;96.13;99769.16;5081425;28;19925;-72
2023/08/08 05:51:42;;;;;;;;;;;;;;;17.66;97.09;99770.38;5080022;28;20327;-72
2023/08/08 05:54:07;;;;;;;;;;;;;;;17.67;97.34;99780.03;5080500;28;20014;-72
2023/08/08 05:56:37;;;;;;;;;;;;;;;17.69;97.31;99770.00;5080755;28;19956;-72
2023/08/08 05:59:02;;;;;;;;;;;;;;;17.76;96.58;99781.59;5079640;28;19990;-72
2023/08/08 06:01:28;;;;;;;;;;;;;;;17.79;96.74;99781.25;5082888;28;19924;-72
2023/08/08 06:03:53;;;;;;;;;;;;;;;17.81;97.49;99785.38;5079035;28;19991;-72
2023/08/08 06:06:18;;;;;;;;;;;;;;;17.71;99.14;99792.00;5081113;28;19935;-72
2023/08/08 06:08:44;;;;;;;;;;;;;;;17.51;100.00;99788.97;5081735;28;19924;-71
2023/08/08 06:11:09;;;;;;;;;;;;;;;17.63;100.00;99792.06;5079082;28;19932;-72
2023/08/08 06:13:34;;;;;;;;;;;;;;;17.61;99.46;99794.13;5080097;28;19931;-72
2023/08/08 06:16:01;;;;;;;;;;;;;;;17.59;100.00;99796.91;5081258;28;20265;-72
2023/08/08 06:18:26;;;;;;;;;;;;;;;17.68;98.97;99795.00;5078672;28;19928;-71
2023/08/08 06:20:51;;;;;;;;;;;;;;;17.78;97.53;99801.78;5083085;28;19924;-72
2023/08/08 06:23:17;;;;;;;;;;;;;;;17.85;95.85;99801.84;5082022;28;19921;-72
2023/08/08 06:25:42;;;;;;;;;;;;;;;17.89;95.14;99798.66;5080137;28;19927;-72
2023/08/08 06:28:07;;;;;;;;;;;;;;;17.97;95.18;99803.88;5080850;28;19927;-72
2023/08/08 06:30:32;;;;;;;;;;;;;;;18.10;93.08;99800.56;5078985;28;19916;-72
2023/08/08 06:32:58;;;;;;;;;;;;;;;18.17;92.23;99806.81;5080454;28;19920;-70
2023/08/08 06:35:23;;;;;;;;;;;;;;;18.18;92.17;99819.16;5077261;28;19971;-70
2023/08/08 06:37:48;;;;;;;;;;;;;;;18.22;91.22;99815.09;5079928;28;20489;-72
2023/08/08 06:40:14;;;;;;;;;;;;;;;18.32;90.92;99815.63;5080924;28;19967;-71
2023/08/08 06:42:39;;;;;;;;;;;;;;;18.42;89.21;99821.53;5081772;28;20377;-71
2023/08/08 06:45:06;;;;;;;;;;;;;;;18.53;88.29;99816.72;5061360;28;20269;-72
2023/08/08 06:47:32;;;;;;;;;;;;;;;18.50;85.56;99811.75;5084073;28;19924;-73
2023/08/08 06:49:58;;;;;;;;;;;;;;;18.51;85.52;99818.75;5085703;28;19927;-72
2023/08/08 06:52:23;;;;;;;;;;;;;;;18.58;85.21;99814.34;5083984;28;19924;-71
2023/08/08 06:54:48;;;;;;;;;;;;;;;18.72;83.42;99826.84;5085935;28;19935;-72
2023/08/08 06:57:13;;;;;;;;;;;;;;;18.85;80.98;99818.97;5083685;28;19926;-72
2023/08/08 06:59:39;;;;;;;;;;;;;;;18.91;80.40;99820.88;5083641;28;19925;-72
2023/08/08 07:02:05;;;;;;;;;;;;;;;18.92;78.23;99816.34;5084984;28;19966;-72
2023/08/08 07:04:30;;;;;;;;;;;;;;;19.05;78.13;99814.66;5080999;28;19930;-72
2023/08/08 07:06:55;;;;;;;;;;;;;;;19.12;77.56;99807.53;5084517;28;20380;-72
2023/08/08 07:09:21;;;;;;;;;;;;;;;19.23;77.32;99804.34;5084884;28;20390;-72
2023/08/08 07:11:47;;;;;;;;;;;;;;;19.38;76.31;99806.91;5083331;28;19927;-71
2023/08/08 07:14:12;;;;;;;;;;;;;;;19.47;75.25;99802.28;5082309;28;20445;-72
2023/08/08 07:16:37;;;;;;;;;;;;;;;19.56;72.99;99803.78;5083916;28;20018;-72
2023/08/08 07:19:02;;;;;;;;;;;;;;;19.69;72.34;99798.53;5081294;28;20384;-72
2023/08/08 07:21:29;;;;;;;;;;;;;;;19.81;71.63;99802.34;5084277;28;20380;-72
2023/08/08 07:23:54;;;;;;;;;;;;;;;19.92;68.01;99791.06;5078035;28;19979;-72
2023/08/08 07:26:22;;;;;;;;;;;;;;;20.06;67.85;99793.81;5083188;28;19924;-72
2023/08/08 07:28:47;;;;;;;;;;;;;;;20.16;66.84;99799.66;5086454;28;19920;-72
2023/08/08 07:31:12;;;;;;;;;;;;;;;20.26;65.00;99789.41;5081218;28;20269;-73
2023/08/08 07:33:37;;;;;;;;;;;;;;;20.38;65.19;99794.00;5080665;28;19920;-72
2023/08/08 07:36:04;;;;;;;;;;;;;;;20.51;62.53;99808.47;5084327;28;19921;-72
2023/08/08 07:38:29;;;;;;;;;;;;;;;20.58;60.28;99801.31;5081918;28;19974;-72
2023/08/08 07:40:54;;;;;;;;;;;;;;;20.66;59.20;99796.59;5083970;28;19932;-72
2023/08/08 07:43:20;;;;;;;;;;;;;;;20.77;59.60;99798.69;5084612;28;20415;-72
2023/08/08 07:45:46;;;;;;;;;;;;;;;20.89;55.37;99795.41;5082333;28;19920;-72
2023/08/08 07:48:12;;;;;;;;;;;;;;;20.92;54.29;99795.00;5084190;28;19920;-71
2023/08/08 07:50:37;;;;;;;;;;;;;;;21.02;54.46;99796.28;5080424;28;19921;-71
2023/08/08 07:53:02;;;;;;;;;;;;;;;21.10;53.19;99792.53;5083165;28;20288;-72
2023/08/08 07:55:28;;;;;;;;;;;;;;;21.19;54.17;99791.34;5084329;28;19920;-71
2023/08/08 07:57:53;;;;;;;;;;;;;;;21.29;53.11;99797.13;5081931;28;19920;-72
2023/08/08 08:00:18;;;;;;;;;;;;;;;21.32;49.29;99786.00;5083399;28;20027;-71
2023/08/08 08:02:44;;;;;;;;;;;;;;;21.37;47.93;99793.44;5079517;28;19924;-72
2023/08/08 08:05:10;;;;;;;;;;;;;;;21.43;48.20;99787.22;5081756;28;19924;-72
2023/08/08 08:07:35;;;;;;;;;;;;;;;21.50;47.99;99788.06;5078935;28;20333;-74
2023/08/08 08:10:02;;;;;;;;;;;;;;;21.63;50.72;99788.84;5081108;28;20272;-77
2023/08/08 08:12:27;;;;;;;;;;;;;;;21.85;53.93;99788.63;5065374;28;19927;-76
2023/08/08 08:14:52;;;;;;;;;;;;;;;21.96;49.50;99788.00;5084022;28;19924;-76
2023/08/08 08:17:18;;;;;;;;;;;;;;;22.01;46.86;99788.22;5083816;28;19920;-76
2023/08/08 08:19:43;;;;;;;;;;;;;;;22.02;44.63;99790.69;5082478;28;20233;-77
2023/08/08 08:22:09;;;;;;;;;;;;;;;22.09;46.83;99787.97;5083261;28;19920;-77
2023/08/08 08:24:34;;;;;;;;;;;;;;;22.15;46.83;99791.69;5081709;28;19927;-78
2023/08/08 08:27:00;;;;;;;;;;;;;;;22.21;48.43;99797.00;5081732;28;20007;-75
2023/08/08 08:29:25;;;;;;;;;;;;;;;22.30;47.21;99795.75;5078440;28;20339;-71
2023/08/08 08:31:50;;;;;;;;;;;;;;;22.35;44.84;99797.81;5079560;28;19927;-71
2023/08/08 08:34:15;;;;;;;;;;;;;;;22.41;44.61;99792.41;5082505;28;19920;-72
2023/08/08 08:36:41;;;;;;;;;;;;;;;22.45;44.54;99795.47;5083935;28;19935;-71
2023/08/08 08:39:06;;;;;;;;;;;;;;;22.49;43.64;99798.59;5081676;28;19970;-71
2023/08/08 08:41:35;;;;;;;;;;;;;;;22.51;44.06;99791.09;5082735;28;19924;-72
2023/08/08 08:44:01;;;;;;;;;;;;;;;22.54;43.45;99788.84;5083963;28;20010;-71
2023/08/08 08:46:26;;;;;;;;;;;;;;;22.56;42.07;99788.63;5079628;28;20121;-71
2023/08/08 08:48:54;;;;;;;;;;;;;;;22.58;40.92;99805.34;5079775;28;19952;-69
2023/08/08 08:51:20;;;;;;;;;;;;;;;22.58;41.54;99792.72;5065890;28;20281;-71
2023/08/08 08:53:46;;;;;;;;;;;;;;;22.62;40.93;99798.53;5082364;28;19946;-71
2023/08/08 08:56:13;;;;;;;;;;;;;;;22.66;40.86;99795.19;5084962;28;19926;-71
2023/08/08 08:58:39;;;;;;;;;;;;;;;22.70;41.33;99800.94;5082296;28;20365;-71
2023/08/08 09:01:05;;;;;;;;;;;;;;;22.73;40.61;99785.25;5081193;28;19977;-71
2023/08/08 09:03:30;;;;;;;;;;;;;;;22.78;40.01;99795.34;5083227;28;19920;-72
2023/08/08 09:05:57;;;;;;;;;;;;;;;22.82;37.18;99793.88;5078725;28;19916;-71
2023/08/08 09:08:22;;;;;;;;;;;;;;;22.85;36.89;99782.69;5078389;28;19921;-70
2023/08/08 09:10:47;;;;;;;;;;;;;;;22.93;38.34;99795.88;5077525;28;19938;-70
2023/08/08 09:13:13;;;;;;;;;;;;;;;22.99;38.20;99789.63;5076273;28;20335;-72
2023/08/08 09:15:38;;;;;;;;;;;;;;;23.06;35.28;99792.28;5066485;28;19945;-72
2023/08/08 09:18:03;;;;;;;;;;;;;;;23.09;35.37;99792.66;5082654;28;19937;-71
2023/08/08 09:20:29;;;;;;;;;;;;;;;23.09;34.47;99787.28;5078930;28;19963;-70
2023/08/08 09:22:54;;;;;;;;;;;;;;;23.12;34.63;99789.53;5079463;28;19925;-70
2023/08/08 09:25:20;;;;;;;;;;;;;;;23.17;35.30;99787.00;5080276;28;19920;-71
2023/08/08 09:27:45;;;;;;;;;;;;;;;23.22;34.67;99783.66;5082147;28;19920;-70
2023/08/08 09:30:11;;;;;;;;;;;;;;;23.27;34.92;99787.34;5082350;28;20340;-71
2023/08/08 09:32:37;;;;;;;;;;;;;;;23.31;34.41;99786.91;5080517;28;19965;-71
2023/08/08 09:35:02;;;;;;;;;;;;;;;23.35;34.86;99791.63;5078595;28;19935;-71
2023/08/08 09:37:28;;;;;;;;;;;;;;;23.41;34.67;99780.00;5082351;28;19938;-71
2023/08/08 09:39:59;;;;;;;;;;;;;;;23.45;33.96;99778.50;5078728;28;20426;-71
2023/08/08 09:42:29;;;;;;;;;;;;;;;23.48;33.24;99771.88;5074949;28;19951;-71
2023/08/08 09:44:56;;;;;;;;;;;;;;;23.50;33.36;99777.88;5072313;28;19920;-71
2023/08/08 09:47:22;;;;;;;;;;;;;;;23.55;33.42;99773.47;5081210;28;19920;-71
2023/08/08 09:49:47;;;;;;;;;;;;;;;23.59;33.14;99771.97;5084262;28;20276;-71
2023/08/08 09:52:13;;;;;;;;;;;;;;;23.65;32.73;99770.28;5077848;28;19920;-71
2023/08/08 09:54:38;;;;;;;;;;;;;;;23.70;32.76;99774.97;5081451;28;19920;-70
2023/08/08 09:57:04;;;;;;;;;;;;;;;23.73;32.35;99763.78;5082022;28;19965;-70
2023/08/08 09:59:30;;;;;;;;;;;;;;;23.76;32.64;99769.53;5078256;28;20306;-70
2023/08/08 10:01:57;;;;;;;;;;;;;;;23.80;33.38;99759.94;5080753;28;19957;-71
2023/08/08 10:04:23;;;;;;;;;;;;;;;23.81;32.60;99761.59;5079848;28;20406;-71
2023/08/08 10:06:48;;;;;;;;;;;;;;;23.86;33.40;99769.84;5081428;28;20225;-71
2023/08/08 10:09:14;;;;;;;;;;;;;;;23.88;33.13;99767.75;5081172;28;19920;-71
2023/08/08 10:11:42;;;;;;;;;;;;;;;23.92;32.91;99758.16;5079200;28;19927;-72
2023/08/08 10:14:10;;;;;;;;;;;;;;;23.93;32.74;99759.81;5080844;28;19921;-72
2023/08/08 10:16:36;;;;;;;;;;;;;;;23.96;32.97;99759.38;5082283;28;19947;-71
2023/08/08 10:19:03;;;;;;;;;;;;;;;24.02;33.44;99753.09;5079920;28;19933;-71
2023/08/08 10:21:32;;;;;;;;;;;;;;;24.07;32.53;99758.63;5082156;28;19924;-71
2023/08/08 10:24:01;;;;;;;;;;;;;;;24.15;33.10;99762.88;5094933;28;20466;-70
2023/08/08 10:26:28;;;;;;;;;;;;;;;24.17;32.89;99749.16;5082544;28;19924;-72
2023/08/08 10:28:57;;;;;;;;;;;;;;;24.17;32.50;99743.78;5084702;28;20352;-71
2023/08/08 10:31:22;;;;;;;;;;;;;;;24.25;32.47;99743.50;5078865;28;19927;-71
2023/08/08 10:33:48;;;;;;;;;;;;;;;24.32;32.21;99746.94;5082626;28;19921;-71
2023/08/08 10:36:13;;;;;;;;;;;;;;;24.40;32.14;99747.44;5084614;28;19956;-71
2023/08/08 10:38:40;;;;;;;;;;;;;;;24.47;32.56;99741.97;5083095;28;19921;-72
2023/08/08 10:41:09;;;;;;;;;;;;;;;24.55;32.58;99752.44;5084091;28;19925;-71
2023/08/08 10:43:34;;;;;;;;;;;;;;;24.61;31.93;99740.75;5084778;28;19925;-71
2023/08/08 10:46:00;;;;;;;;;;;;;;;24.70;32.76;99738.53;5082710;28;19916;-71
2023/08/08 10:48:26;;;;;;;;;;;;;;;24.76;32.32;99743.00;5086855;28;20587;-72
2023/08/08 10:50:54;;;;;;;;;;;;;;;24.83;31.49;99747.25;5081479;28;19920;-71
2023/08/08 10:53:22;;;;;;;;;;;;;;;24.84;31.35;99738.13;5082716;28;19921;-70
2023/08/08 10:55:56;;;;;;;;;;;;;;;24.83;31.75;99733.78;5065990;28;19974;-71
2023/08/08 10:58:21;;;;;;;;;;;;;;;24.91;32.01;99734.53;5084466;28;19916;-71
2023/08/08 11:00:48;;;;;;;;;;;;;;;24.97;30.92;99737.13;5082122;28;20433;-72
2023/08/08 11:03:14;;;;;;;;;;;;;;;24.96;31.29;99734.66;5084052;28;20011;-71
2023/08/08 11:05:39;;;;;;;;;;;;;;;24.97;31.39;99725.50;5063278;28;20007;-71
2023/08/08 11:08:06;;;;;;;;;;;;;;;24.98;31.50;99724.44;5081107;28;20019;-71
2023/08/08 11:10:34;;;;;;;;;;;;;;;25.01;31.31;99718.56;5082078;28;20138;-71
2023/08/08 11:13:02;;;;;;;;;;;;;;;25.03;30.43;99717.31;5083698;28;20236;-70
2023/08/08 11:15:28;;;;;;;;;;;;;;;25.08;31.04;99719.28;5084637;28;20036;-70
2023/08/08 11:17:55;;;;;;;;;;;;;;;25.10;30.37;99722.56;5085527;28;19951;-71
2023/08/08 11:20:20;;;;;;;;;;;;;;;25.11;29.42;99718.81;5081946;28;20282;-71
2023/08/08 11:22:50;;;;;;;;;;;;;;;25.10;28.92;99711.75;5085657;28;19920;-70
2023/08/08 11:25:15;;;;;;;;;;;;;;;25.11;28.80;99711.53;5082564;28;19939;-71
2023/08/08 11:27:47;;;;;;;;;;;;;;;25.11;29.26;99714.25;5081959;28;19932;-72
2023/08/08 11:30:13;;;;;;;;;;;;;;;25.14;29.52;99704.88;5084785;28;20295;-71
2023/08/08 11:32:38;;;;;;;;;;;;;;;25.18;29.20;99693.34;5082601;28;19920;-71
2023/08/08 11:35:04;;;;;;;;;;;;;;;25.24;29.49;99699.69;5083425;28;19981;-70
2023/08/08 11:37:29;;;;;;;;;;;;;;;25.40;28.98;99696.28;5081644;28;19952;-71
2023/08/08 11:39:55;;;;;;;;;;;;;;;25.46;28.45;99698.03;5076919;28;20021;-72
2023/08/08 11:42:20;;;;;;;;;;;;;;;25.46;28.51;99687.25;5084259;28;19946;-71
2023/08/08 11:44:45;;;;;;;;;;;;;;;25.51;29.09;99687.34;5082434;28;20050;-71
2023/08/08 11:47:11;;;;;;;;;;;;;;;25.59;29.29;99678.09;5081107;28;19970;-72
2023/08/08 11:49:40;;;;;;;;;;;;;;;25.65;29.04;99680.69;5084932;28;20407;-71
2023/08/08 11:52:06;;;;;;;;;;;;;;;25.74;28.43;99680.31;5084399;28;20058;-71
2023/08/08 11:54:31;;;;;;;;;;;;;;;25.78;27.74;99681.47;5081829;28;20311;-72
2023/08/08 11:56:57;;;;;;;;;;;;;;;25.86;28.18;99679.22;5084700;28;19927;-70
2023/08/08 11:59:23;;;;;;;;;;;;;;;25.93;27.62;99673.66;5082121;28;20003;-70
2023/08/08 12:01:49;;;;;;;;;;;;;;;26.00;27.52;99674.34;5083432;28;20030;-71
2023/08/08 12:04:15;;;;;;;;;;;;;;;26.07;27.14;99680.47;5082040;28;19964;-70
2023/08/08 12:06:42;;;;;;;;;;;;;;;26.12;27.20;99661.63;5081090;28;19954;-71
2023/08/08 12:09:07;;;;;;;;;;;;;;;26.22;27.03;99666.38;5084828;28;19927;-71
2023/08/08 12:11:37;;;;;;;;;;;;;;;26.35;27.44;99672.38;5083915;28;19920;-71
2023/08/08 12:14:02;;;;;;;;;;;;;;;26.43;27.18;99661.16;5081776;28;19920;-71
2023/08/08 12:16:33;;;;;;;;;;;;;;;26.62;27.29;99655.53;5084030;28;19920;-71
2023/08/08 12:19:02;;;;;;;;;;;;;;;26.95;26.69;99661.00;5076262;28;19924;-71
2023/08/08 12:21:28;;;;;;;;;;;;;;;27.24;25.87;99665.22;5080354;28;19967;-71
2023/08/08 12:23:53;;;;;;;;;;;;;;;27.49;25.85;99661.25;5084625;28;19920;-71
2023/08/08 12:26:18;;;;;;;;;;;;;;;27.74;25.73;99658.91;5081870;28;20399;-71
2023/08/08 12:28:44;;;;;;;;;;;;;;;27.97;26.38;99653.22;5084655;28;19920;-70
2023/08/08 12:31:09;;;;;;;;;;;;;;;28.22;25.77;99654.59;5082243;28;19927;-71
2023/08/08 12:33:35;;;;;;;;;;;;;;;28.27;24.82;99649.25;5081872;28;19924;-72
2023/08/08 12:36:00;;;;;;;;;;;;;;;28.42;24.50;99649.38;5083842;28;19921;-71
2023/08/08 12:38:25;;;;;;;;;;;;;;;28.55;24.97;99643.53;5081604;28;19950;-71